createdAt,value
2018-11-26T00:04:59.911Z,97810.34
2018-11-26T00:10:14.462Z,97806.89
2018-11-26T00:15:16.870Z,97806.56
2018-11-26T00:20:19.170Z,97816.89
2018-11-26T00:25:21.464Z,97810.83
2018-11-26T00:30:23.950Z,97814.77
2018-11-26T00:35:26.279Z,97812.14
2018-11-26T00:40:28.670Z,97811.52
2018-11-26T00:45:31.029Z,97809.52
2018-11-26T00:50:33.338Z,97806.27
2018-11-26T00:55:35.732Z,97802.47
2018-11-26T01:00:38.414Z,97799.52
2018-11-26T01:05:42.081Z,97805.88
2018-11-26T01:10:44.405Z,97801.16
2018-11-26T01:15:46.847Z,97792.47
2018-11-26T01:20:49.179Z,97791.45
2018-11-26T01:25:51.550Z,97792.47
2018-11-26T01:30:53.890Z,97798.34
2018-11-26T01:35:56.200Z,97797.23
2018-11-26T01:40:58.652Z,97792.14
2018-11-26T01:46:00.915Z,97795.39
2018-11-26T01:51:03.206Z,97793.30
2018-11-26T01:56:06.318Z,97789.85
2018-11-26T02:01:08.616Z,97790.77
2018-11-26T02:06:10.916Z,97782.67
2018-11-26T02:11:13.195Z,97784.03
2018-11-26T02:16:15.463Z,97777.29
2018-11-26T02:21:17.799Z,97778.52
2018-11-26T02:26:20.154Z,97774.92
2018-11-26T02:31:22.989Z,97778.91
2018-11-26T02:36:28.283Z,97782.35
2018-11-26T02:41:30.589Z,97778.91
2018-11-26T02:46:32.916Z,97780.96
2018-11-26T02:51:35.214Z,97783.52
2018-11-26T02:56:37.503Z,97777.52
2018-11-26T03:01:40.139Z,97777.66
2018-11-26T03:06:43.422Z,97768.83
2018-11-26T03:11:45.721Z,97777.66
2018-11-26T03:16:48.019Z,97764.22
2018-11-26T03:21:50.314Z,97763.43
2018-11-26T03:26:52.607Z,97768.67
2018-11-26T03:31:55.072Z,97770.77
2018-11-26T03:36:57.364Z,97780.91
2018-11-26T03:41:59.668Z,97781.59
2018-11-26T03:47:01.975Z,97790.77
2018-11-26T03:52:04.589Z,97795.38
2018-11-26T03:57:06.893Z,97791.12
2018-11-26T04:02:09.672Z,97788.20
2018-11-26T04:07:13.252Z,97803.30
2018-11-26T04:12:15.527Z,97806.84
2018-11-26T04:17:17.819Z,97809.36
2018-11-26T04:22:20.423Z,97800.73
2018-11-26T04:27:24.517Z,97808.89
2018-11-26T04:32:27.066Z,97802.34
2018-11-26T04:37:29.433Z,97809.58
2018-11-26T04:42:31.740Z,97808.45
2018-11-26T04:47:34.180Z,97815.50
2018-11-26T04:52:36.524Z,97806.02
2018-11-26T04:57:42.520Z,97811.27
2018-11-26T05:02:41.862Z,97803.08
2018-11-26T05:07:44.227Z,97800.45
2018-11-26T05:12:46.529Z,97796.52
2018-11-26T05:17:48.982Z,97802.09
2018-11-26T05:22:54.314Z,97803.55
2018-11-26T05:27:56.613Z,97794.86
2018-11-26T05:32:59.010Z,97786.50
2018-11-26T05:38:01.310Z,97793.84
2018-11-26T05:43:03.655Z,97807.58
2018-11-26T05:48:06.203Z,97811.52
2018-11-26T05:53:08.530Z,97814.03
2018-11-26T05:58:10.878Z,97821.77
2018-11-26T06:03:13.257Z,97821.77
2018-11-26T06:08:15.702Z,97817.62
2018-11-26T06:13:17.991Z,97825.09
2018-11-26T06:18:20.410Z,97820.71
2018-11-26T06:23:22.796Z,97815.52
2018-11-26T06:28:25.194Z,97818.48
2018-11-26T06:33:27.697Z,97835.84
2018-11-26T06:38:30.077Z,97833.75
2018-11-26T06:43:32.434Z,97840.97
2018-11-26T06:48:34.956Z,97842.46
2018-11-26T06:53:37.853Z,97841.50
2018-11-26T06:58:40.152Z,97854.33
2018-11-26T07:03:42.518Z,97854.66
2018-11-26T07:08:44.807Z,97857.66
2018-11-26T07:13:47.102Z,97863.56
2018-11-26T07:18:49.512Z,97860.61
2018-11-26T07:23:51.821Z,97860.61
2018-11-26T07:28:54.146Z,97876.02
2018-11-26T07:33:56.800Z,97873.09
2018-11-26T07:38:59.100Z,97858.55
2018-11-26T07:44:01.435Z,97857.76
2018-11-26T07:49:03.812Z,97856.94
2018-11-26T07:54:06.485Z,97867.59
2018-11-26T07:59:08.771Z,97870.88
2018-11-26T08:04:11.236Z,97870.91
2018-11-26T08:09:13.540Z,97883.52
2018-11-26T08:14:16.779Z,97881.27
2018-11-26T08:19:19.756Z,97891.58
2018-11-26T08:24:22.156Z,97882.08
2018-11-26T08:29:24.482Z,97874.56
2018-11-26T08:34:26.956Z,97885.03
2018-11-26T08:39:35.234Z,97894.19
2018-11-26T08:44:40.902Z,97884.06
2018-11-26T08:49:43.300Z,97888.32
2018-11-26T08:54:45.686Z,97892.09
2018-11-26T08:59:47.997Z,97896.53
2018-11-26T09:04:56.971Z,97905.72
2018-11-26T09:09:59.367Z,97919.26
2018-11-26T09:15:01.778Z,97910.10
2018-11-26T09:20:06.388Z,97924.48
2018-11-26T09:25:10.771Z,97916.48
2018-11-26T09:30:14.005Z,97915.52
2018-11-26T09:35:16.631Z,97911.89
2018-11-26T09:40:18.965Z,97908.82
2018-11-26T09:45:21.387Z,97907.52
2018-11-26T09:50:23.818Z,97906.54
2018-11-26T09:55:26.319Z,97906.54
2018-11-26T10:00:28.661Z,97914.28
2018-11-26T10:05:31.088Z,97919.20
2018-11-26T10:10:33.493Z,97927.39
2018-11-26T10:15:35.800Z,97911.06
2018-11-26T10:20:38.142Z,97904.55
2018-11-26T10:25:40.432Z,97898.67
2018-11-26T10:30:42.865Z,97909.62
2018-11-26T10:35:45.242Z,97903.10
2018-11-26T10:40:47.601Z,97908.17
2018-11-26T10:45:50.048Z,97913.89
2018-11-26T10:50:52.366Z,97909.02
2018-11-26T10:55:54.862Z,97907.40
2018-11-26T11:01:01.291Z,97904.96
2018-11-26T11:06:03.658Z,97918.39
2018-11-26T11:11:06.322Z,97915.98
2018-11-26T11:16:08.645Z,97924.98
2018-11-26T11:21:11.246Z,97932.84
2018-11-26T11:26:13.561Z,97926.83
2018-11-26T11:31:15.954Z,97929.92
2018-11-26T11:36:18.450Z,97920.30
2018-11-26T11:41:20.751Z,97927.47
2018-11-26T11:46:23.133Z,97914.88
2018-11-26T11:51:25.433Z,97924.83
2018-11-26T11:56:27.754Z,97925.00
2018-11-26T12:01:30.239Z,97933.98
2018-11-26T12:06:32.603Z,97931.22
2018-11-26T12:11:34.901Z,97926.98
2018-11-26T12:16:37.185Z,97933.81
2018-11-26T12:21:44.111Z,97929.89
2018-11-26T12:26:46.429Z,97929.41
2018-11-26T12:31:48.785Z,97927.45
2018-11-26T12:36:51.472Z,97927.66
2018-11-26T12:41:53.901Z,97929.28
2018-11-26T12:46:56.203Z,97928.95
2018-11-26T12:51:59.017Z,97927.31
2018-11-26T12:57:01.355Z,97924.23
2018-11-26T13:02:03.800Z,97930.92
2018-11-26T13:07:06.220Z,97933.55
2018-11-26T13:12:08.562Z,97935.05
2018-11-26T13:17:10.892Z,97937.16
2018-11-26T13:22:13.262Z,97934.08
2018-11-26T13:27:15.570Z,97946.16
2018-11-26T13:32:17.983Z,97940.43
2018-11-26T13:37:20.365Z,97932.13
2018-11-26T13:42:22.702Z,97930.34
2018-11-26T13:47:25.043Z,97935.23
2018-11-26T13:52:27.619Z,97935.09
2018-11-26T13:57:29.904Z,97944.88
2018-11-26T14:02:32.317Z,97952.56
2018-11-26T14:07:34.664Z,97956.80
2018-11-26T14:12:36.980Z,97969.38
2018-11-26T14:17:39.517Z,97958.92
2018-11-26T14:22:41.927Z,97960.70
2018-11-26T14:27:44.583Z,97962.66
2018-11-26T14:32:46.984Z,97963.65
2018-11-26T14:37:53.747Z,97966.91
2018-11-26T14:42:56.489Z,97965.60
2018-11-26T14:47:58.839Z,97977.52
2018-11-26T14:53:04.397Z,97979.48
2018-11-26T14:58:06.912Z,97979.96
2018-11-26T15:03:09.249Z,97984.84
2018-11-26T15:08:11.951Z,97983.39
2018-11-26T15:13:14.282Z,97985.66
2018-11-26T15:18:16.689Z,97985.18
2018-11-26T15:23:18.981Z,97989.92
2018-11-26T15:28:21.294Z,97992.53
2018-11-26T15:33:23.643Z,97997.10
2018-11-26T15:38:26.080Z,97994.31
2018-11-26T15:43:28.470Z,97990.88
2018-11-26T15:48:30.785Z,97997.89
2018-11-26T15:53:33.152Z,97997.10
2018-11-26T15:58:35.811Z,98007.04
2018-11-26T16:03:38.126Z,98018.48
2018-11-26T16:08:40.643Z,98011.61
2018-11-26T16:13:42.980Z,98011.95
2018-11-26T16:18:45.296Z,98019.78
2018-11-26T16:23:47.602Z,98031.55
2018-11-26T16:28:50.757Z,98031.55
2018-11-26T16:33:54.335Z,98031.85
2018-11-26T16:38:57.271Z,98037.91
2018-11-26T16:43:59.566Z,98032.67
2018-11-26T16:49:02.354Z,98030.55
2018-11-26T16:54:04.966Z,98035.29
2018-11-26T16:59:07.543Z,98036.11
2018-11-26T17:04:09.953Z,98045.91
2018-11-26T17:09:12.357Z,98059.28
2018-11-26T17:14:14.767Z,98061.89
2018-11-26T17:19:17.174Z,98063.20
2018-11-26T17:24:19.469Z,98067.13
2018-11-26T17:29:21.801Z,98074.66
2018-11-26T17:34:24.188Z,98072.22
2018-11-26T17:39:26.876Z,98078.89
2018-11-26T17:44:29.207Z,98076.28
2018-11-26T17:49:31.530Z,98092.61
2018-11-26T17:54:34.330Z,98087.38
2018-11-26T17:59:37.430Z,98097.70
2018-11-26T18:04:41.417Z,98093.92
2018-11-26T18:09:44.259Z,98099.66
2018-11-26T18:14:46.902Z,98112.21
2018-11-26T18:19:49.195Z,98114.52
2018-11-26T18:24:51.659Z,98115.00
2018-11-26T18:29:54.033Z,98121.88
2018-11-26T18:34:58.182Z,98117.13
2018-11-26T18:40:00.748Z,98122.66
2018-11-26T18:45:03.123Z,98133.94
2018-11-26T18:50:08.364Z,98124.63
2018-11-26T18:55:11.256Z,98145.70
2018-11-26T19:00:15.866Z,98152.88
2018-11-26T19:05:18.782Z,98160.23
2018-11-26T19:10:23.267Z,98154.67
2018-11-26T19:15:32.891Z,98153.87
2018-11-26T19:20:35.197Z,98157.13
2018-11-26T19:25:37.498Z,98152.05
2018-11-26T19:30:39.857Z,98161.19
2018-11-26T19:35:42.213Z,98169.67
2018-11-26T19:40:44.558Z,98170.19
2018-11-26T19:45:47.107Z,98170.50
2018-11-26T19:50:49.474Z,98173.76
2018-11-26T19:55:51.847Z,98182.23
2018-11-26T20:00:54.178Z,98185.68
2018-11-26T20:06:01.298Z,98192.69
2018-11-26T20:11:03.689Z,98196.42
2018-11-26T20:16:08.594Z,98197.91
2018-11-26T20:21:11.586Z,98199.69
2018-11-26T20:26:13.900Z,98205.08
2018-11-26T20:31:16.219Z,98217.95
2018-11-26T20:36:18.544Z,98216.17
2018-11-26T20:41:20.915Z,98215.86
2018-11-26T20:46:23.698Z,98217.95
2018-11-26T20:51:26.340Z,98224.64
2018-11-26T20:56:28.754Z,98225.64
2018-11-26T21:01:31.090Z,98228.11
2018-11-26T21:06:33.517Z,98230.89
2018-11-26T21:11:36.289Z,98230.22
2018-11-26T21:16:38.579Z,98231.34
2018-11-26T21:21:40.911Z,98236.58
2018-11-26T21:26:43.257Z,98243.09
2018-11-26T21:31:45.660Z,98242.71
2018-11-26T21:36:48.012Z,98249.38
2018-11-26T21:41:50.438Z,98244.80
2018-11-26T21:46:53.052Z,98254.11
2018-11-26T21:51:55.497Z,98262.44
2018-11-26T21:56:57.972Z,98266.68
2018-11-26T22:02:01.350Z,98275.33
2018-11-26T22:07:04.473Z,98279.23
2018-11-26T22:12:06.859Z,98286.43
2018-11-26T22:17:09.148Z,98297.53
2018-11-26T22:22:11.446Z,98286.94
2018-11-26T22:27:13.802Z,98304.22
2018-11-26T22:32:16.149Z,98296.59
2018-11-26T22:37:18.547Z,98312.05
2018-11-26T22:42:20.894Z,98308.62
2018-11-26T22:47:23.297Z,98306.31
2018-11-26T22:52:25.640Z,98311.55
2018-11-26T22:57:28.006Z,98320.32
2018-11-26T23:02:30.365Z,98323.28
2018-11-26T23:07:32.678Z,98327.84
2018-11-26T23:12:35.106Z,98330.09
2018-11-26T23:17:37.443Z,98332.05
2018-11-26T23:22:39.980Z,98332.55
2018-11-26T23:27:42.409Z,98332.37
2018-11-26T23:32:48.842Z,98330.38
2018-11-26T23:37:51.153Z,98338.84
2018-11-26T23:42:53.704Z,98346.30
2018-11-26T23:47:56.082Z,98344.20
2018-11-26T23:52:58.386Z,98345.98
2018-11-26T23:58:00.729Z,98340.89
